createdAt,value
2017-12-02T00:02:01.178Z,101835.86
2017-12-02T00:04:36.006Z,101838.34
2017-12-02T00:07:11.995Z,101833.98
2017-12-02T00:09:43.771Z,101843.45
2017-12-02T00:12:16.150Z,101839.22
2017-12-02T00:14:49.111Z,101844.76
2017-12-02T00:17:20.112Z,101851.41
2017-12-02T00:19:51.006Z,101849.81
2017-12-02T00:22:24.709Z,101848.92
2017-12-02T00:24:56.691Z,101858.25
2017-12-02T00:27:27.446Z,101853.81
2017-12-02T00:29:58.416Z,101858.19
2017-12-02T00:32:29.759Z,101856.91
2017-12-02T00:35:03.226Z,101860.89
2017-12-02T00:37:33.770Z,101870.29
2017-12-02T00:40:05.148Z,101868.45
2017-12-02T00:42:38.731Z,101873.72
2017-12-02T00:45:13.908Z,101865.88
2017-12-02T00:47:48.589Z,101868.02
2017-12-02T00:50:20.409Z,101876.38
2017-12-02T00:52:53.691Z,101886.31
2017-12-02T00:55:24.712Z,101893.66
2017-12-02T00:57:56.132Z,101895.31
2017-12-02T01:00:28.971Z,101897.29
2017-12-02T01:03:01.179Z,101895.06
2017-12-02T01:05:45.982Z,101903.08
2017-12-02T01:08:21.668Z,101908.44
2017-12-02T01:10:53.578Z,101912.64
2017-12-02T01:13:25.679Z,101912.16
2017-12-02T01:15:58.667Z,101915.08
2017-12-02T01:18:29.575Z,101926.16
2017-12-02T01:21:01.274Z,101928.66
2017-12-02T01:23:32.974Z,101930.66
2017-12-02T01:26:05.890Z,101930.98
2017-12-02T01:28:39.082Z,101941.53
2017-12-02T01:33:53.038Z,101943.20
2017-12-02T01:36:28.504Z,101945.27
2017-12-02T01:39:03.595Z,101948.43
2017-12-02T01:41:35.337Z,101951.87
2017-12-02T01:44:08.428Z,101955.73
2017-12-02T01:46:40.346Z,101947.77
2017-12-02T01:49:16.194Z,101954.14
2017-12-02T01:51:49.589Z,101956.13
2017-12-02T01:54:22.785Z,101955.05
2017-12-02T01:56:53.533Z,101957.48
2017-12-02T01:59:24.851Z,101957.84
2017-12-02T02:01:57.791Z,101969.72
2017-12-02T02:04:31.681Z,101969.97
2017-12-02T02:07:03.065Z,101978.84
2017-12-02T02:09:33.373Z,101975.44
2017-12-02T02:12:05.492Z,101975.92
2017-12-02T02:14:38.611Z,101969.88
2017-12-02T02:17:11.586Z,101982.59
2017-12-02T02:19:44.313Z,101988.72
2017-12-02T02:22:20.403Z,101982.52
2017-12-02T02:24:53.395Z,101983.64
2017-12-02T02:27:23.948Z,101989.14
2017-12-02T02:29:55.584Z,101985.23
2017-12-02T02:32:29.594Z,101990.80
2017-12-02T02:37:41.882Z,101988.09
2017-12-02T02:42:58.210Z,101991.46
2017-12-02T02:45:31.012Z,101985.19
2017-12-02T02:48:03.101Z,101991.26
2017-12-02T02:50:35.813Z,101991.81
2017-12-02T02:53:07.726Z,101991.31
2017-12-02T02:55:40.417Z,101996.59
2017-12-02T02:58:12.920Z,102000.36
2017-12-02T03:00:45.021Z,102000.14
2017-12-02T03:03:15.887Z,101998.50
2017-12-02T03:05:49.133Z,102001.45
2017-12-02T03:08:23.840Z,102009.21
2017-12-02T03:11:02.638Z,102007.59
2017-12-02T03:13:34.533Z,102000.13
2017-12-02T03:16:06.721Z,102009.80
2017-12-02T03:18:57.433Z,102010.20
2017-12-02T03:21:29.134Z,102016.69
2017-12-02T03:24:01.560Z,102022.08
2017-12-02T03:26:35.428Z,102015.70
2017-12-02T03:29:06.275Z,102021.27
2017-12-02T03:31:39.340Z,102030.66
2017-12-02T03:34:11.726Z,102025.25
2017-12-02T03:36:44.922Z,102010.89
2017-12-02T03:39:17.836Z,102026.95
2017-12-02T03:41:50.121Z,102022.38
2017-12-02T03:44:22.928Z,102026.22
2017-12-02T03:46:53.498Z,102034.70
2017-12-02T03:49:25.260Z,102031.42
2017-12-02T03:51:58.132Z,102033.27
2017-12-02T03:54:30.036Z,102030.11
2017-12-02T03:57:02.745Z,102025.83
2017-12-02T03:59:35.186Z,102028.30
2017-12-02T04:02:08.374Z,102027.97
2017-12-02T04:04:42.276Z,102025.03
2017-12-02T04:07:14.561Z,102026.45
2017-12-02T04:09:46.882Z,102031.08
2017-12-02T04:12:19.670Z,102033.95
2017-12-02T04:14:51.681Z,102035.30
2017-12-02T04:17:24.588Z,102042.86
2017-12-02T04:19:58.673Z,102039.15
2017-12-02T04:22:32.275Z,102038.59
2017-12-02T04:25:03.980Z,102040.77
2017-12-02T04:27:36.177Z,102037.09
2017-12-02T04:30:09.673Z,102043.03
2017-12-02T04:32:44.914Z,102052.54
2017-12-02T04:35:16.855Z,102053.56
2017-12-02T04:37:48.665Z,102057.54
2017-12-02T04:40:22.258Z,102058.27
2017-12-02T04:42:55.768Z,102059.73
2017-12-02T04:45:29.073Z,102063.50
2017-12-02T04:48:02.968Z,102063.70
2017-12-02T04:50:36.540Z,102059.70
2017-12-02T04:53:09.968Z,102063.87
2017-12-02T04:55:41.854Z,102059.55
2017-12-02T04:58:14.760Z,102053.72
2017-12-02T05:00:48.462Z,102044.14
2017-12-02T05:03:21.059Z,102053.58
2017-12-02T05:05:54.023Z,102049.83
2017-12-02T05:08:27.666Z,102043.97
2017-12-02T05:11:01.357Z,102045.42
2017-12-02T05:13:33.136Z,102050.77
2017-12-02T05:16:06.949Z,102058.38
2017-12-02T05:18:40.249Z,102061.56
2017-12-02T05:21:11.947Z,102066.84
2017-12-02T05:23:49.548Z,102062.22
2017-12-02T05:26:24.152Z,102067.80
2017-12-02T05:28:56.147Z,102072.39
2017-12-02T05:31:27.756Z,102073.08
2017-12-02T05:33:59.552Z,102073.71
2017-12-02T05:36:31.050Z,102077.02
2017-12-02T05:39:03.967Z,102079.48
2017-12-02T05:41:36.285Z,102078.80
2017-12-02T05:44:14.463Z,102079.12
2017-12-02T05:46:46.783Z,102084.13
2017-12-02T05:49:19.082Z,102087.63
2017-12-02T05:51:51.768Z,102091.53
2017-12-02T05:54:24.775Z,102095.05
2017-12-02T05:56:58.086Z,102091.64
2017-12-02T05:59:29.991Z,102090.93
2017-12-02T06:02:02.284Z,102095.30
2017-12-02T06:04:34.276Z,102096.52
2017-12-02T06:07:06.286Z,102088.94
2017-12-02T06:09:38.991Z,102102.95
2017-12-02T06:12:11.511Z,102101.80
2017-12-02T06:14:44.067Z,102115.61
2017-12-02T06:17:16.170Z,102112.11
2017-12-02T06:19:48.171Z,102116.55
2017-12-02T06:22:29.808Z,102127.09
2017-12-02T06:25:01.779Z,102130.86
2017-12-02T06:27:33.568Z,102138.16
2017-12-02T06:30:10.191Z,102138.73
2017-12-02T06:32:45.572Z,102146.39
2017-12-02T06:35:23.177Z,102150.50
2017-12-02T06:37:55.266Z,102145.37
2017-12-02T06:40:28.600Z,102156.88
2017-12-02T06:43:01.181Z,102157.17
2017-12-02T06:45:33.703Z,102160.13
2017-12-02T06:48:10.898Z,102169.83
2017-12-02T06:50:42.853Z,102173.99
2017-12-02T06:53:15.116Z,102187.71
2017-12-02T06:55:47.098Z,102185.58
2017-12-02T06:58:18.815Z,102177.00
2017-12-02T07:00:55.032Z,102165.63
2017-12-02T07:03:28.914Z,102168.23
2017-12-02T07:06:01.806Z,102178.77
2017-12-02T07:08:36.130Z,102166.94
2017-12-02T07:11:09.628Z,102187.42
2017-12-02T07:13:41.837Z,102186.53
2017-12-02T07:16:38.724Z,102189.61
2017-12-02T07:19:13.036Z,102172.67
2017-12-02T07:22:16.695Z,102188.15
2017-12-02T07:24:48.615Z,102191.84
2017-12-02T07:27:21.923Z,102190.89
2017-12-02T07:29:53.519Z,102200.87
2017-12-02T07:32:26.420Z,102200.16
2017-12-02T07:34:58.731Z,102206.75
2017-12-02T07:37:29.228Z,102207.36
2017-12-02T07:40:01.064Z,102200.36
2017-12-02T07:42:33.721Z,102193.00
2017-12-02T07:45:09.728Z,102207.94
2017-12-02T07:47:43.717Z,102203.37
2017-12-02T07:50:16.508Z,102202.67
2017-12-02T07:52:49.421Z,102208.28
2017-12-02T07:55:22.128Z,102210.04
2017-12-02T07:57:54.649Z,102212.77
2017-12-02T08:00:29.821Z,102218.80
2017-12-02T08:03:02.431Z,102203.98
2017-12-02T08:05:39.789Z,102223.91
2017-12-02T08:08:24.722Z,102224.08
2017-12-02T08:10:59.463Z,102224.25
2017-12-02T08:13:36.945Z,102228.81
2017-12-02T08:16:12.392Z,102224.22
2017-12-02T08:18:46.726Z,102220.55
2017-12-02T08:21:18.839Z,102221.80
2017-12-02T08:23:51.911Z,102222.20
2017-12-02T08:26:23.716Z,102221.19
2017-12-02T08:28:57.934Z,102216.65
2017-12-02T08:31:33.040Z,102220.20
2017-12-02T08:34:09.181Z,102220.08
2017-12-02T08:36:40.567Z,102220.59
2017-12-02T08:39:12.322Z,102220.09
2017-12-02T08:41:43.759Z,102222.86
2017-12-02T08:44:22.256Z,102222.83
2017-12-02T08:46:54.461Z,102224.32
2017-12-02T08:49:28.719Z,102231.97
2017-12-02T08:52:05.787Z,102221.64
2017-12-02T08:54:38.187Z,102234.38
2017-12-02T08:57:28.276Z,102250.81
2017-12-02T09:00:16.564Z,102261.00
2017-12-02T09:02:50.683Z,102261.41
2017-12-02T09:05:25.571Z,102255.17
2017-12-02T09:07:58.757Z,102262.56
2017-12-02T09:10:47.369Z,102265.43
2017-12-02T09:13:17.964Z,102264.98
2017-12-02T09:19:04.745Z,102276.25
2017-12-02T09:21:37.521Z,102276.34
2017-12-02T09:24:14.283Z,102273.11
2017-12-02T09:26:46.943Z,102285.31
2017-12-02T09:29:18.947Z,102287.89
2017-12-02T09:31:52.353Z,102291.98
2017-12-02T09:34:27.652Z,102301.02
2017-12-02T09:37:00.183Z,102301.90
2017-12-02T09:39:34.402Z,102296.58
2017-12-02T09:42:06.691Z,102301.12
2017-12-02T09:44:44.192Z,102297.06
2017-12-02T09:47:27.266Z,102305.00
2017-12-02T09:50:05.608Z,102302.49
2017-12-02T09:52:55.226Z,102308.98
2017-12-02T09:55:30.069Z,102307.32
2017-12-02T09:58:04.208Z,102306.95
2017-12-02T10:00:39.315Z,102311.89
2017-12-02T10:05:50.363Z,102316.25
2017-12-02T10:08:25.714Z,102312.52
2017-12-02T10:10:58.421Z,102312.56
2017-12-02T10:13:30.397Z,102314.61
2017-12-02T10:16:03.567Z,102290.72
2017-12-02T10:18:35.994Z,102307.47
2017-12-02T10:21:08.993Z,102315.00
2017-12-02T10:23:52.846Z,102287.94
2017-12-02T10:26:25.642Z,102311.13
2017-12-02T10:29:00.590Z,102310.86
2017-12-02T10:31:34.787Z,102296.80
2017-12-02T10:34:07.386Z,102308.41
2017-12-02T10:36:39.593Z,102322.80
2017-12-02T10:39:12.987Z,102327.41
2017-12-02T10:41:48.696Z,102319.11
2017-12-02T10:44:23.299Z,102317.03
2017-12-02T10:46:56.068Z,102292.30
2017-12-02T10:51:11.171Z,102305.76
2017-12-02T10:53:44.737Z,102320.30
2017-12-02T10:56:21.590Z,102315.13
2017-12-02T10:58:58.486Z,102310.28
2017-12-02T11:01:31.166Z,102313.97
2017-12-02T11:04:03.064Z,102313.60
2017-12-02T11:06:38.093Z,102317.73
2017-12-02T11:09:10.368Z,102278.48
2017-12-02T11:11:57.943Z,102304.52
2017-12-02T11:14:34.029Z,102313.92
2017-12-02T11:17:08.205Z,102309.93
2017-12-02T11:19:41.513Z,102316.24
2017-12-02T11:22:13.299Z,102311.91
2017-12-02T11:24:45.120Z,102307.77
2017-12-02T11:27:17.122Z,102306.47
2017-12-02T11:29:49.236Z,102305.92
2017-12-02T11:32:22.817Z,102300.98
2017-12-02T11:34:55.147Z,102304.37
2017-12-02T11:37:28.863Z,102302.19
2017-12-02T11:40:02.172Z,102294.70
2017-12-02T11:42:34.818Z,102295.30
2017-12-02T11:45:09.934Z,102305.16
2017-12-02T11:47:45.063Z,102295.66
2017-12-02T11:50:28.945Z,102298.70
2017-12-02T11:53:12.143Z,102290.15
2017-12-02T11:55:46.200Z,102297.58
2017-12-02T11:58:19.057Z,102290.80
2017-12-02T12:00:52.827Z,102291.03
2017-12-02T12:03:24.826Z,102255.90
2017-12-02T12:05:56.551Z,102289.02
2017-12-02T12:11:12.048Z,102280.11
2017-12-02T12:13:45.923Z,102279.73
2017-12-02T12:16:21.975Z,102272.52
2017-12-02T12:18:57.530Z,102272.05
2017-12-02T12:21:32.486Z,102279.19
2017-12-02T12:24:06.701Z,102274.78
2017-12-02T12:26:47.396Z,102266.83
2017-12-02T12:29:31.164Z,102272.49
2017-12-02T12:35:26.912Z,102271.25
2017-12-02T12:38:01.101Z,102262.02
2017-12-02T12:40:35.318Z,102272.75
2017-12-02T12:43:08.021Z,102251.63
2017-12-02T12:45:43.294Z,102268.13
2017-12-02T12:48:17.739Z,102276.71
2017-12-02T12:50:49.904Z,102270.18
2017-12-02T12:53:22.516Z,102267.39
2017-12-02T12:55:57.907Z,102262.62
2017-12-02T12:58:32.510Z,102264.75
2017-12-02T13:01:09.025Z,102264.40
2017-12-02T13:03:46.230Z,102261.45
2017-12-02T13:06:20.405Z,102215.57
2017-12-02T13:08:55.774Z,102241.66
2017-12-02T13:11:31.183Z,102239.61
2017-12-02T13:16:49.419Z,102235.23
2017-12-02T13:19:20.337Z,102240.66
2017-12-02T13:21:51.273Z,102254.73
2017-12-02T13:24:25.445Z,102249.55
2017-12-02T13:26:57.716Z,102251.29
2017-12-02T13:29:34.367Z,102248.45
2017-12-02T13:32:12.071Z,102253.47
2017-12-02T13:34:44.898Z,102254.70
2017-12-02T13:37:21.876Z,102267.27
2017-12-02T13:40:02.238Z,102228.80
2017-12-02T13:42:33.779Z,102265.51
2017-12-02T13:45:14.747Z,102264.95
2017-12-02T13:47:48.261Z,102252.34
2017-12-02T13:50:21.105Z,102254.72
2017-12-02T13:52:53.755Z,102260.47
2017-12-02T13:55:27.741Z,102267.39
2017-12-02T13:58:01.360Z,102267.97
2017-12-02T14:00:40.153Z,102270.23
2017-12-02T14:03:14.762Z,102275.14
2017-12-02T14:05:58.559Z,102264.30
2017-12-02T14:08:34.065Z,102262.91
2017-12-02T14:11:09.822Z,102270.61
2017-12-02T14:13:45.008Z,102265.02
2017-12-02T14:16:20.807Z,102245.77
2017-12-02T14:18:51.994Z,102264.34
2017-12-02T14:21:24.411Z,102265.52
2017-12-02T14:23:58.747Z,102276.30
2017-12-02T14:26:37.105Z,102268.32
2017-12-02T14:29:11.214Z,102274.19
2017-12-02T14:31:46.955Z,102275.27
2017-12-02T14:34:27.785Z,102271.55
2017-12-02T14:37:13.212Z,102261.94
2017-12-02T14:39:45.267Z,102283.01
2017-12-02T14:42:23.074Z,102283.78
2017-12-02T14:47:54.806Z,102295.80
2017-12-02T14:50:30.303Z,102290.13
2017-12-02T14:53:10.186Z,102290.61
2017-12-02T14:55:44.982Z,102286.20
2017-12-02T14:58:35.204Z,102285.32
2017-12-02T15:01:15.493Z,102276.06
2017-12-02T15:04:00.537Z,102279.68
2017-12-02T15:06:50.970Z,102282.57
2017-12-02T15:09:23.019Z,102278.42
2017-12-02T15:11:54.870Z,102279.53
2017-12-02T15:14:32.980Z,102272.81
2017-12-02T15:17:07.105Z,102273.64
2017-12-02T15:19:51.318Z,102270.61
2017-12-02T15:22:33.210Z,102275.12
2017-12-02T15:25:05.803Z,102278.75
2017-12-02T15:30:22.968Z,102265.62
2017-12-02T15:33:01.525Z,102275.39
2017-12-02T15:35:38.930Z,102276.62
2017-12-02T15:38:14.513Z,102279.05
2017-12-02T15:41:03.408Z,102282.89
2017-12-02T15:43:38.479Z,102278.88
2017-12-02T15:46:17.293Z,102280.48
2017-12-02T15:48:51.201Z,102286.00
2017-12-02T15:51:24.504Z,102286.41
2017-12-02T15:54:06.689Z,102288.58
2017-12-02T15:56:45.415Z,102292.16
2017-12-02T15:59:22.593Z,102285.86
2017-12-02T16:01:58.720Z,102283.31
2017-12-02T16:04:33.058Z,102293.27
2017-12-02T16:07:09.127Z,102292.45
2017-12-02T16:12:52.755Z,102299.19
2017-12-02T16:15:26.601Z,102301.22
2017-12-02T16:18:03.157Z,102294.41
2017-12-02T16:20:41.833Z,102301.10
2017-12-02T16:23:18.672Z,102306.03
2017-12-02T16:25:56.240Z,102317.09
2017-12-02T16:28:32.242Z,102304.48
2017-12-02T16:31:05.621Z,102304.83
2017-12-02T16:33:43.574Z,102306.12
2017-12-02T16:36:21.601Z,102308.91
2017-12-02T16:38:54.572Z,102318.37
2017-12-02T16:41:28.181Z,102312.98
2017-12-02T16:44:02.924Z,102317.09
2017-12-02T16:46:36.576Z,102316.08
2017-12-02T16:49:14.728Z,102317.78
2017-12-02T16:51:50.688Z,102315.88
2017-12-02T16:54:25.940Z,102329.21
2017-12-02T16:56:59.760Z,102323.30
2017-12-02T16:59:42.092Z,102320.80
2017-12-02T17:02:18.521Z,102305.34
2017-12-02T17:04:54.121Z,102309.39
2017-12-02T17:07:32.288Z,102316.11
2017-12-02T17:10:06.600Z,102325.01
2017-12-02T17:12:44.024Z,102318.77
2017-12-02T17:15:24.083Z,102330.70
2017-12-02T17:18:00.963Z,102326.13
2017-12-02T17:20:35.649Z,102308.76
2017-12-02T17:23:08.063Z,102314.74
2017-12-02T17:25:49.373Z,102319.67
2017-12-02T17:28:21.939Z,102320.98
2017-12-02T17:30:57.423Z,102330.88
2017-12-02T17:33:31.347Z,102316.78
2017-12-02T17:36:04.752Z,102316.83
2017-12-02T17:38:39.263Z,102319.80
2017-12-02T17:41:16.964Z,102322.06
2017-12-02T17:43:55.862Z,102306.17
2017-12-02T17:46:36.167Z,102320.69
2017-12-02T17:49:09.434Z,102318.66
2017-12-02T17:51:46.048Z,102324.48
2017-12-02T17:54:23.248Z,102320.81
2017-12-02T17:56:58.728Z,102325.19
2017-12-02T17:59:51.888Z,102325.83
2017-12-02T18:02:27.140Z,102320.40
2017-12-02T18:05:01.352Z,102332.71
2017-12-02T18:07:39.520Z,102326.30
2017-12-02T18:10:11.986Z,102327.39
2017-12-02T18:12:46.832Z,102314.31
2017-12-02T18:15:22.442Z,102314.95
2017-12-02T18:17:58.811Z,102318.84
2017-12-02T18:23:09.409Z,102318.27
2017-12-02T18:25:52.924Z,102317.87
2017-12-02T18:31:09.710Z,102317.94
2017-12-02T18:33:45.197Z,102322.15
2017-12-02T18:36:19.771Z,102323.41
2017-12-02T18:38:52.377Z,102331.95
2017-12-02T18:41:42.614Z,102332.95
2017-12-02T18:44:17.825Z,102335.30
2017-12-02T18:46:50.445Z,102341.52
2017-12-02T18:49:21.953Z,102329.75
2017-12-02T18:51:56.667Z,102333.42
2017-12-02T18:57:17.488Z,102342.34
2017-12-02T18:59:52.573Z,102342.22
2017-12-02T19:02:29.250Z,102352.31
2017-12-02T19:05:13.341Z,102339.61
2017-12-02T19:07:48.735Z,102339.09
2017-12-02T19:10:22.298Z,102339.13
2017-12-02T19:12:55.686Z,102336.21
2017-12-02T19:15:36.165Z,102335.87
2017-12-02T19:18:10.373Z,102335.48
2017-12-02T19:20:45.342Z,102332.34
2017-12-02T19:23:18.581Z,102336.05
2017-12-02T19:25:53.472Z,102291.22
2017-12-02T19:28:36.601Z,102325.37
2017-12-02T19:31:15.378Z,102325.76
2017-12-02T19:33:47.690Z,102321.72
2017-12-02T19:36:24.821Z,102308.18
2017-12-02T19:38:59.787Z,102322.85
2017-12-02T19:41:33.273Z,102321.23
2017-12-02T19:44:06.001Z,102326.31
2017-12-02T19:46:39.582Z,102322.00
2017-12-02T19:49:11.781Z,102319.13
2017-12-02T19:51:45.373Z,102319.85
2017-12-02T19:54:24.592Z,102324.23
2017-12-02T19:56:59.084Z,102325.60
2017-12-02T19:59:33.879Z,102332.23
2017-12-02T20:02:09.077Z,102329.14
2017-12-02T20:04:46.386Z,102332.64
2017-12-02T20:07:21.579Z,102329.00
2017-12-02T20:10:01.366Z,102339.73
2017-12-02T20:12:39.372Z,102338.39
2017-12-02T20:15:16.573Z,102344.69
2017-12-02T20:17:50.305Z,102323.77
2017-12-02T20:20:23.188Z,102336.09
2017-12-02T20:22:56.000Z,102333.88
2017-12-02T20:25:28.109Z,102318.67
2017-12-02T20:28:01.835Z,102323.08
2017-12-02T20:30:33.818Z,102322.38
2017-12-02T20:33:06.420Z,102321.31
2017-12-02T20:35:40.734Z,102322.11
2017-12-02T20:38:21.322Z,102315.65
2017-12-02T20:41:03.565Z,102316.47
2017-12-02T20:43:37.890Z,102317.86
2017-12-02T20:46:11.034Z,102305.30
2017-12-02T20:48:44.236Z,102312.20
2017-12-02T20:51:17.236Z,102309.70
2017-12-02T20:53:58.148Z,102309.30
2017-12-02T20:56:32.938Z,102304.78
2017-12-02T20:59:14.203Z,102311.90
2017-12-02T21:01:52.279Z,102289.19
2017-12-02T21:04:25.561Z,102308.94
2017-12-02T21:06:58.015Z,102301.77
2017-12-02T21:09:32.123Z,102305.66
2017-12-02T21:12:05.724Z,102302.73
2017-12-02T21:14:38.232Z,102296.44
2017-12-02T21:17:14.915Z,102297.86
2017-12-02T21:19:46.699Z,102299.72
2017-12-02T21:22:20.505Z,102297.24
2017-12-02T21:24:58.030Z,102295.86
2017-12-02T21:27:44.836Z,102296.52
2017-12-02T21:30:20.912Z,102290.63
2017-12-02T21:32:54.904Z,102284.94
2017-12-02T21:35:27.506Z,102281.56
2017-12-02T21:38:04.406Z,102276.34
2017-12-02T21:40:38.293Z,102273.36
2017-12-02T21:43:12.605Z,102232.30
2017-12-02T21:45:49.807Z,102284.30
2017-12-02T21:48:26.184Z,102280.34
2017-12-02T21:51:04.604Z,102273.73
2017-12-02T21:53:51.995Z,102281.02
2017-12-02T21:56:24.999Z,102274.41
2017-12-02T21:58:58.492Z,102270.44
2017-12-02T22:01:37.067Z,102279.86
2017-12-02T22:04:10.624Z,102276.19
2017-12-02T22:06:44.247Z,102285.65
2017-12-02T22:09:17.866Z,102283.03
2017-12-02T22:11:52.061Z,102274.67
2017-12-02T22:14:28.159Z,102276.56
2017-12-02T22:17:02.500Z,102281.23
2017-12-02T22:19:37.775Z,102271.59
2017-12-02T22:22:09.469Z,102268.73
2017-12-02T22:24:48.078Z,102264.27
2017-12-02T22:27:20.684Z,102262.02
2017-12-02T22:29:56.435Z,102261.99
2017-12-02T22:32:28.485Z,102264.43
2017-12-02T22:35:01.293Z,102265.22
2017-12-02T22:37:35.181Z,102257.19
2017-12-02T22:40:07.277Z,102239.33
2017-12-02T22:42:43.184Z,102258.73
2017-12-02T22:45:20.778Z,102255.88
2017-12-02T22:47:53.577Z,102261.25
2017-12-02T22:50:25.674Z,102257.59
2017-12-02T22:52:57.664Z,102256.91
2017-12-02T22:55:32.690Z,102250.84
2017-12-02T22:58:05.772Z,102252.53
2017-12-02T23:00:41.059Z,102252.18
2017-12-02T23:03:14.352Z,102257.97
2017-12-02T23:05:57.033Z,102253.55
2017-12-02T23:08:44.944Z,102255.67
2017-12-02T23:11:20.919Z,102244.80
2017-12-02T23:14:01.557Z,102250.31
2017-12-02T23:16:35.180Z,102252.67
2017-12-02T23:19:09.438Z,102247.42
2017-12-02T23:21:45.367Z,102244.05
2017-12-02T23:24:20.241Z,102247.34
2017-12-02T23:26:53.248Z,102243.56
2017-12-02T23:29:27.661Z,102233.11
2017-12-02T23:32:02.924Z,102232.82
2017-12-02T23:34:38.761Z,102234.70
2017-12-02T23:37:11.455Z,102233.37
2017-12-02T23:39:44.230Z,102221.95
2017-12-02T23:42:18.415Z,102223.97
2017-12-02T23:44:51.544Z,102224.72
2017-12-02T23:47:23.747Z,102219.23
2017-12-02T23:49:56.863Z,102215.14
2017-12-02T23:52:30.864Z,102218.02
2017-12-02T23:55:02.984Z,102191.66
2017-12-02T23:57:36.393Z,102211.20
